sensor_id;sensor_type;location;lat;lon;timestamp;temperature;humidity
9816;DHT22;4947;44.526;11.360;2022-09-09T00:01:23;21.10;99.90
9816;DHT22;4947;44.526;11.360;2022-09-09T00:03:57;21.20;99.90
9816;DHT22;4947;44.526;11.360;2022-09-09T00:06:29;21.30;99.90
9816;DHT22;4947;44.526;11.360;2022-09-09T00:09:02;21.40;99.90
9816;DHT22;4947;44.526;11.360;2022-09-09T00:11:39;21.40;99.90
9816;DHT22;4947;44.526;11.360;2022-09-09T00:14:13;21.40;99.90
9816;DHT22;4947;44.526;11.360;2022-09-09T00:16:50;21.40;99.90
9816;DHT22;4947;44.526;11.360;2022-09-09T00:19:24;21.40;99.90
9816;DHT22;4947;44.526;11.360;2022-09-09T00:22:03;21.40;99.90
9816;DHT22;4947;44.526;11.360;2022-09-09T00:24:40;21.40;99.90
9816;DHT22;4947;44.526;11.360;2022-09-09T00:27:19;21.30;99.90
9816;DHT22;4947;44.526;11.360;2022-09-09T00:29:56;21.10;99.90
9816;DHT22;4947;44.526;11.360;2022-09-09T00:32:28;21.10;99.90
9816;DHT22;4947;44.526;11.360;2022-09-09T00:35:02;21.10;99.90
9816;DHT22;4947;44.526;11.360;2022-09-09T00:37:31;21.00;99.90
9816;DHT22;4947;44.526;11.360;2022-09-09T00:40:16;21.00;99.90
9816;DHT22;4947;44.526;11.360;2022-09-09T00:42:45;21.00;99.90
9816;DHT22;4947;44.526;11.360;2022-09-09T00:45:29;20.90;99.90
9816;DHT22;4947;44.526;11.360;2022-09-09T00:48:04;20.90;99.90
9816;DHT22;4947;44.526;11.360;2022-09-09T00:50:40;20.90;99.90
9816;DHT22;4947;44.526;11.360;2022-09-09T00:53:28;20.70;99.90
9816;DHT22;4947;44.526;11.360;2022-09-09T00:56:06;20.60;99.90
9816;DHT22;4947;44.526;11.360;2022-09-09T00:58:35;20.60;99.90
9816;DHT22;4947;44.526;11.360;2022-09-09T01:01:07;20.50;99.90
9816;DHT22;4947;44.526;11.360;2022-09-09T01:03:37;20.50;99.90
9816;DHT22;4947;44.526;11.360;2022-09-09T01:06:13;20.50;99.90
9816;DHT22;4947;44.526;11.360;2022-09-09T01:09:07;20.40;99.90
9816;DHT22;4947;44.526;11.360;2022-09-09T01:11:47;20.30;99.90
9816;DHT22;4947;44.526;11.360;2022-09-09T01:14:24;20.30;99.90
9816;DHT22;4947;44.526;11.360;2022-09-09T01:16:59;20.30;99.90
9816;DHT22;4947;44.526;11.360;2022-09-09T01:19:37;20.20;99.90
9816;DHT22;4947;44.526;11.360;2022-09-09T01:22:14;20.20;99.90
9816;DHT22;4947;44.526;11.360;2022-09-09T01:25:01;20.20;99.90
9816;DHT22;4947;44.526;11.360;2022-09-09T01:27:36;20.10;99.90
9816;DHT22;4947;44.526;11.360;2022-09-09T01:30:09;20.10;99.90
9816;DHT22;4947;44.526;11.360;2022-09-09T01:32:43;20.10;99.90
9816;DHT22;4947;44.526;11.360;2022-09-09T01:35:15;20.20;99.90
9816;DHT22;4947;44.526;11.360;2022-09-09T01:37:47;20.20;99.90
9816;DHT22;4947;44.526;11.360;2022-09-09T01:40:15;20.10;99.90
9816;DHT22;4947;44.526;11.360;2022-09-09T01:42:45;20.10;99.90
9816;DHT22;4947;44.526;11.360;2022-09-09T01:45:12;20.00;99.90
9816;DHT22;4947;44.526;11.360;2022-09-09T01:47:40;20.10;99.90
9816;DHT22;4947;44.526;11.360;2022-09-09T01:50:10;20.00;99.90
9816;DHT22;4947;44.526;11.360;2022-09-09T01:52:42;19.90;99.90
9816;DHT22;4947;44.526;11.360;2022-09-09T01:55:11;19.90;99.90
9816;DHT22;4947;44.526;11.360;2022-09-09T01:57:44;19.90;99.90
9816;DHT22;4947;44.526;11.360;2022-09-09T02:00:18;19.80;99.90
9816;DHT22;4947;44.526;11.360;2022-09-09T02:02:53;19.80;99.90
9816;DHT22;4947;44.526;11.360;2022-09-09T02:05:33;19.80;99.90
9816;DHT22;4947;44.526;11.360;2022-09-09T02:08:06;19.70;99.90
9816;DHT22;4947;44.526;11.360;2022-09-09T02:10:40;19.60;99.90
9816;DHT22;4947;44.526;11.360;2022-09-09T02:13:13;19.50;99.90
9816;DHT22;4947;44.526;11.360;2022-09-09T02:15:45;19.40;99.90
9816;DHT22;4947;44.526;11.360;2022-09-09T02:18:18;19.40;99.90
9816;DHT22;4947;44.526;11.360;2022-09-09T02:20:47;19.30;99.90
9816;DHT22;4947;44.526;11.360;2022-09-09T02:23:15;19.30;99.90
9816;DHT22;4947;44.526;11.360;2022-09-09T02:25:43;19.30;99.90
9816;DHT22;4947;44.526;11.360;2022-09-09T02:28:14;19.20;99.90
9816;DHT22;4947;44.526;11.360;2022-09-09T02:30:45;19.20;99.90
9816;DHT22;4947;44.526;11.360;2022-09-09T02:33:14;19.10;99.90
9816;DHT22;4947;44.526;11.360;2022-09-09T02:35:43;19.20;99.90
9816;DHT22;4947;44.526;11.360;2022-09-09T02:38:13;19.20;99.90
9816;DHT22;4947;44.526;11.360;2022-09-09T02:40:42;19.20;99.90
9816;DHT22;4947;44.526;11.360;2022-09-09T02:43:10;19.20;99.90
9816;DHT22;4947;44.526;11.360;2022-09-09T02:45:43;19.20;99.90
9816;DHT22;4947;44.526;11.360;2022-09-09T02:48:26;19.20;99.90
9816;DHT22;4947;44.526;11.360;2022-09-09T02:51:01;19.10;99.90
9816;DHT22;4947;44.526;11.360;2022-09-09T02:53:37;19.10;99.90
9816;DHT22;4947;44.526;11.360;2022-09-09T02:56:11;19.10;99.90
9816;DHT22;4947;44.526;11.360;2022-09-09T02:58:41;19.00;99.90
9816;DHT22;4947;44.526;11.360;2022-09-09T03:01:10;19.10;99.90
9816;DHT22;4947;44.526;11.360;2022-09-09T03:03:38;19.10;99.90
9816;DHT22;4947;44.526;11.360;2022-09-09T03:06:07;19.10;99.90
9816;DHT22;4947;44.526;11.360;2022-09-09T03:08:34;19.10;99.90
9816;DHT22;4947;44.526;11.360;2022-09-09T03:11:02;19.00;99.90
9816;DHT22;4947;44.526;11.360;2022-09-09T03:13:30;18.90;99.90
9816;DHT22;4947;44.526;11.360;2022-09-09T03:15:58;18.80;99.90
9816;DHT22;4947;44.526;11.360;2022-09-09T03:18:28;18.70;99.90
9816;DHT22;4947;44.526;11.360;2022-09-09T03:20:56;18.70;99.90
9816;DHT22;4947;44.526;11.360;2022-09-09T03:23:24;18.70;99.90
9816;DHT22;4947;44.526;11.360;2022-09-09T03:25:52;18.70;99.90
9816;DHT22;4947;44.526;11.360;2022-09-09T03:28:22;18.70;99.90
9816;DHT22;4947;44.526;11.360;2022-09-09T03:30:58;18.70;99.90
9816;DHT22;4947;44.526;11.360;2022-09-09T03:33:28;18.70;99.90
9816;DHT22;4947;44.526;11.360;2022-09-09T03:35:55;18.70;99.90
9816;DHT22;4947;44.526;11.360;2022-09-09T03:38:24;18.70;99.90
9816;DHT22;4947;44.526;11.360;2022-09-09T03:40:53;18.70;99.90
9816;DHT22;4947;44.526;11.360;2022-09-09T03:43:23;18.60;99.90
9816;DHT22;4947;44.526;11.360;2022-09-09T03:45:51;18.60;99.90
9816;DHT22;4947;44.526;11.360;2022-09-09T03:48:19;18.60;99.90
9816;DHT22;4947;44.526;11.360;2022-09-09T03:50:50;18.50;99.90
9816;DHT22;4947;44.526;11.360;2022-09-09T03:53:20;18.40;99.90
9816;DHT22;4947;44.526;11.360;2022-09-09T03:55:50;18.40;99.90
9816;DHT22;4947;44.526;11.360;2022-09-09T03:58:18;18.40;99.90
9816;DHT22;4947;44.526;11.360;2022-09-09T04:00:53;18.40;99.90
9816;DHT22;4947;44.526;11.360;2022-09-09T04:03:21;18.40;99.90
9816;DHT22;4947;44.526;11.360;2022-09-09T04:05:51;18.40;99.90
9816;DHT22;4947;44.526;11.360;2022-09-09T04:08:20;18.40;99.90
9816;DHT22;4947;44.526;11.360;2022-09-09T04:10:48;18.40;99.90
9816;DHT22;4947;44.526;11.360;2022-09-09T04:13:17;18.40;99.90
9816;DHT22;4947;44.526;11.360;2022-09-09T04:15:51;18.40;99.90
9816;DHT22;4947;44.526;11.360;2022-09-09T04:18:19;18.40;99.90
9816;DHT22;4947;44.526;11.360;2022-09-09T04:20:48;18.40;99.90
9816;DHT22;4947;44.526;11.360;2022-09-09T04:23:18;18.50;99.90
9816;DHT22;4947;44.526;11.360;2022-09-09T04:25:46;18.50;99.90
9816;DHT22;4947;44.526;11.360;2022-09-09T04:28:14;18.50;99.90
9816;DHT22;4947;44.526;11.360;2022-09-09T04:30:42;18.50;99.90
9816;DHT22;4947;44.526;11.360;2022-09-09T04:33:11;18.50;99.90
9816;DHT22;4947;44.526;11.360;2022-09-09T04:35:39;18.50;99.90
9816;DHT22;4947;44.526;11.360;2022-09-09T04:38:10;18.40;99.90
9816;DHT22;4947;44.526;11.360;2022-09-09T04:40:42;18.40;99.90
9816;DHT22;4947;44.526;11.360;2022-09-09T04:43:10;18.40;99.90
9816;DHT22;4947;44.526;11.360;2022-09-09T04:45:37;18.40;99.90
9816;DHT22;4947;44.526;11.360;2022-09-09T04:48:06;18.40;99.90
9816;DHT22;4947;44.526;11.360;2022-09-09T04:50:33;18.40;99.90
9816;DHT22;4947;44.526;11.360;2022-09-09T04:53:01;18.50;99.90
9816;DHT22;4947;44.526;11.360;2022-09-09T04:55:28;18.50;99.90
9816;DHT22;4947;44.526;11.360;2022-09-09T04:57:57;18.50;99.90
9816;DHT22;4947;44.526;11.360;2022-09-09T05:00:25;18.60;99.90
9816;DHT22;4947;44.526;11.360;2022-09-09T05:02:54;18.50;99.90
9816;DHT22;4947;44.526;11.360;2022-09-09T05:05:21;18.50;99.90
9816;DHT22;4947;44.526;11.360;2022-09-09T05:07:49;18.50;99.90
9816;DHT22;4947;44.526;11.360;2022-09-09T05:10:16;18.50;99.90
9816;DHT22;4947;44.526;11.360;2022-09-09T05:12:52;18.60;99.90
9816;DHT22;4947;44.526;11.360;2022-09-09T05:15:21;18.60;99.90
9816;DHT22;4947;44.526;11.360;2022-09-09T05:17:49;18.60;99.90
9816;DHT22;4947;44.526;11.360;2022-09-09T05:20:18;18.70;99.90
9816;DHT22;4947;44.526;11.360;2022-09-09T05:22:45;18.70;99.90
9816;DHT22;4947;44.526;11.360;2022-09-09T05:25:13;18.70;99.90
9816;DHT22;4947;44.526;11.360;2022-09-09T05:27:41;18.70;99.90
9816;DHT22;4947;44.526;11.360;2022-09-09T05:30:10;18.70;99.90
9816;DHT22;4947;44.526;11.360;2022-09-09T05:32:39;18.70;99.90
9816;DHT22;4947;44.526;11.360;2022-09-09T05:35:07;18.80;99.90
9816;DHT22;4947;44.526;11.360;2022-09-09T05:37:35;18.80;99.90
9816;DHT22;4947;44.526;11.360;2022-09-09T05:40:04;18.80;99.90
9816;DHT22;4947;44.526;11.360;2022-09-09T05:42:32;18.80;99.90
9816;DHT22;4947;44.526;11.360;2022-09-09T05:44:59;18.90;99.90
9816;DHT22;4947;44.526;11.360;2022-09-09T05:47:27;18.90;99.90
9816;DHT22;4947;44.526;11.360;2022-09-09T05:49:56;19.00;99.90
9816;DHT22;4947;44.526;11.360;2022-09-09T05:52:23;19.10;99.90
9816;DHT22;4947;44.526;11.360;2022-09-09T05:54:51;19.20;99.90
9816;DHT22;4947;44.526;11.360;2022-09-09T05:57:20;19.30;99.90
9816;DHT22;4947;44.526;11.360;2022-09-09T05:59:47;19.30;99.90
9816;DHT22;4947;44.526;11.360;2022-09-09T06:02:15;19.50;99.90
9816;DHT22;4947;44.526;11.360;2022-09-09T06:04:42;19.60;99.90
9816;DHT22;4947;44.526;11.360;2022-09-09T06:07:12;19.70;99.90
9816;DHT22;4947;44.526;11.360;2022-09-09T06:09:40;19.80;99.90
9816;DHT22;4947;44.526;11.360;2022-09-09T06:12:07;19.90;99.90
9816;DHT22;4947;44.526;11.360;2022-09-09T06:14:35;19.90;99.90
9816;DHT22;4947;44.526;11.360;2022-09-09T06:17:02;20.00;99.90
9816;DHT22;4947;44.526;11.360;2022-09-09T06:19:30;20.10;99.90
9816;DHT22;4947;44.526;11.360;2022-09-09T06:21:58;20.30;99.90
9816;DHT22;4947;44.526;11.360;2022-09-09T06:24:28;20.30;99.90
9816;DHT22;4947;44.526;11.360;2022-09-09T06:26:55;20.40;99.90
9816;DHT22;4947;44.526;11.360;2022-09-09T06:29:23;20.50;99.90
9816;DHT22;4947;44.526;11.360;2022-09-09T06:31:50;20.50;99.90
9816;DHT22;4947;44.526;11.360;2022-09-09T06:34:18;20.60;99.90
9816;DHT22;4947;44.526;11.360;2022-09-09T06:36:45;20.70;99.90
9816;DHT22;4947;44.526;11.360;2022-09-09T06:39:13;20.80;99.90
9816;DHT22;4947;44.526;11.360;2022-09-09T06:41:42;21.00;99.90
9816;DHT22;4947;44.526;11.360;2022-09-09T06:44:10;21.10;99.90
9816;DHT22;4947;44.526;11.360;2022-09-09T06:46:38;21.20;99.90
9816;DHT22;4947;44.526;11.360;2022-09-09T06:49:07;21.30;99.90
9816;DHT22;4947;44.526;11.360;2022-09-09T06:51:36;21.40;99.90
9816;DHT22;4947;44.526;11.360;2022-09-09T06:54:08;21.40;99.90
9816;DHT22;4947;44.526;11.360;2022-09-09T06:56:37;21.60;99.90
9816;DHT22;4947;44.526;11.360;2022-09-09T06:59:08;21.80;99.90
9816;DHT22;4947;44.526;11.360;2022-09-09T07:01:37;21.90;99.90
9816;DHT22;4947;44.526;11.360;2022-09-09T07:04:06;22.10;99.90
9816;DHT22;4947;44.526;11.360;2022-09-09T07:06:36;22.20;99.90
9816;DHT22;4947;44.526;11.360;2022-09-09T07:09:06;22.30;99.90
9816;DHT22;4947;44.526;11.360;2022-09-09T07:11:38;22.40;99.90
9816;DHT22;4947;44.526;11.360;2022-09-09T07:14:08;22.60;99.90
9816;DHT22;4947;44.526;11.360;2022-09-09T07:16:38;23.00;99.90
9816;DHT22;4947;44.526;11.360;2022-09-09T07:19:05;23.50;99.90
9816;DHT22;4947;44.526;11.360;2022-09-09T07:21:35;24.10;99.90
9816;DHT22;4947;44.526;11.360;2022-09-09T07:24:03;24.40;99.90
9816;DHT22;4947;44.526;11.360;2022-09-09T07:26:33;24.90;99.90
9816;DHT22;4947;44.526;11.360;2022-09-09T07:29:01;25.50;99.90
9816;DHT22;4947;44.526;11.360;2022-09-09T07:31:32;25.80;99.90
9816;DHT22;4947;44.526;11.360;2022-09-09T07:34:00;25.70;99.90
9816;DHT22;4947;44.526;11.360;2022-09-09T07:36:30;26.30;98.70
9816;DHT22;4947;44.526;11.360;2022-09-09T07:39:00;27.30;95.60
9816;DHT22;4947;44.526;11.360;2022-09-09T07:41:33;28.20;93.00
9816;DHT22;4947;44.526;11.360;2022-09-09T07:44:04;29.20;90.40
9816;DHT22;4947;44.526;11.360;2022-09-09T07:46:35;29.70;86.20
9816;DHT22;4947;44.526;11.360;2022-09-09T07:49:05;30.20;83.80
9816;DHT22;4947;44.526;11.360;2022-09-09T07:51:34;31.10;80.90
9816;DHT22;4947;44.526;11.360;2022-09-09T07:54:04;31.80;77.40
9816;DHT22;4947;44.526;11.360;2022-09-09T07:56:33;31.70;77.30
9816;DHT22;4947;44.526;11.360;2022-09-09T07:59:01;32.20;74.90
9816;DHT22;4947;44.526;11.360;2022-09-09T08:01:31;31.70;74.00
9816;DHT22;4947;44.526;11.360;2022-09-09T08:04:01;32.20;75.40
9816;DHT22;4947;44.526;11.360;2022-09-09T08:06:32;32.40;72.90
9816;DHT22;4947;44.526;11.360;2022-09-09T08:09:00;32.60;72.30
9816;DHT22;4947;44.526;11.360;2022-09-09T08:11:29;32.70;71.70
9816;DHT22;4947;44.526;11.360;2022-09-09T08:13:59;33.10;69.40
9816;DHT22;4947;44.526;11.360;2022-09-09T08:16:28;33.70;68.30
9816;DHT22;4947;44.526;11.360;2022-09-09T08:18:56;32.80;64.70
9816;DHT22;4947;44.526;11.360;2022-09-09T08:21:27;32.40;65.10
9816;DHT22;4947;44.526;11.360;2022-09-09T08:23:57;32.60;65.60
9816;DHT22;4947;44.526;11.360;2022-09-09T08:26:25;34.10;62.70
9816;DHT22;4947;44.526;11.360;2022-09-09T08:28:55;34.60;61.00
9816;DHT22;4947;44.526;11.360;2022-09-09T08:31:24;35.00;59.00
9816;DHT22;4947;44.526;11.360;2022-09-09T08:33:52;35.30;58.00
9816;DHT22;4947;44.526;11.360;2022-09-09T08:36:21;35.00;60.90
9816;DHT22;4947;44.526;11.360;2022-09-09T08:38:51;34.70;61.90
9816;DHT22;4947;44.526;11.360;2022-09-09T08:44:22;35.90;56.70
9816;DHT22;4947;44.526;11.360;2022-09-09T08:46:57;36.10;55.80
9816;DHT22;4947;44.526;11.360;2022-09-09T08:49:52;36.30;52.80
9816;DHT22;4947;44.526;11.360;2022-09-09T08:52:25;36.60;53.70
9816;DHT22;4947;44.526;11.360;2022-09-09T08:54:58;36.20;52.20
9816;DHT22;4947;44.526;11.360;2022-09-09T08:57:31;36.20;54.90
9816;DHT22;4947;44.526;11.360;2022-09-09T08:59:59;35.30;57.40
9816;DHT22;4947;44.526;11.360;2022-09-09T09:02:35;35.00;59.10
9816;DHT22;4947;44.526;11.360;2022-09-09T09:05:14;35.10;58.40
9816;DHT22;4947;44.526;11.360;2022-09-09T09:07:55;34.90;58.90
9816;DHT22;4947;44.526;11.360;2022-09-09T09:10:37;35.30;59.00
9816;DHT22;4947;44.526;11.360;2022-09-09T09:13:15;35.50;58.30
9816;DHT22;4947;44.526;11.360;2022-09-09T09:15:49;35.90;57.10
9816;DHT22;4947;44.526;11.360;2022-09-09T09:18:17;36.10;57.70
9816;DHT22;4947;44.526;11.360;2022-09-09T09:20:54;36.10;58.90
9816;DHT22;4947;44.526;11.360;2022-09-09T09:23:29;36.00;57.00
9816;DHT22;4947;44.526;11.360;2022-09-09T09:26:05;36.10;55.80
9816;DHT22;4947;44.526;11.360;2022-09-09T09:28:34;36.70;54.70
9816;DHT22;4947;44.526;11.360;2022-09-09T09:31:04;36.80;53.60
9816;DHT22;4947;44.526;11.360;2022-09-09T09:33:35;36.60;55.30
9816;DHT22;4947;44.526;11.360;2022-09-09T09:36:06;36.50;56.60
9816;DHT22;4947;44.526;11.360;2022-09-09T09:38:35;36.30;56.10
9816;DHT22;4947;44.526;11.360;2022-09-09T09:41:05;36.60;55.30
9816;DHT22;4947;44.526;11.360;2022-09-09T09:43:33;36.10;53.70
9816;DHT22;4947;44.526;11.360;2022-09-09T09:46:04;35.60;54.50
9816;DHT22;4947;44.526;11.360;2022-09-09T09:48:32;35.60;54.40
9816;DHT22;4947;44.526;11.360;2022-09-09T09:51:01;34.90;53.80
9816;DHT22;4947;44.526;11.360;2022-09-09T09:53:31;35.20;54.60
9816;DHT22;4947;44.526;11.360;2022-09-09T09:56:01;35.20;54.90
9816;DHT22;4947;44.526;11.360;2022-09-09T09:58:32;34.60;58.60
9816;DHT22;4947;44.526;11.360;2022-09-09T10:01:00;33.90;60.50
9816;DHT22;4947;44.526;11.360;2022-09-09T10:03:29;33.20;60.00
9816;DHT22;4947;44.526;11.360;2022-09-09T10:05:57;32.50;59.50
9816;DHT22;4947;44.526;11.360;2022-09-09T10:08:25;31.80;60.70
9816;DHT22;4947;44.526;11.360;2022-09-09T10:11:04;31.60;62.90
9816;DHT22;4947;44.526;11.360;2022-09-09T10:13:42;31.60;60.50
9816;DHT22;4947;44.526;11.360;2022-09-09T10:16:25;31.30;61.80
9816;DHT22;4947;44.526;11.360;2022-09-09T10:18:59;31.20;61.50
9816;DHT22;4947;44.526;11.360;2022-09-09T10:21:49;31.20;61.20
9816;DHT22;4947;44.526;11.360;2022-09-09T10:24:44;31.00;65.10
9816;DHT22;4947;44.526;11.360;2022-09-09T10:27:20;31.00;68.50
9816;DHT22;4947;44.526;11.360;2022-09-09T10:30:00;30.90;64.60
9816;DHT22;4947;44.526;11.360;2022-09-09T10:32:41;30.70;63.10
9816;DHT22;4947;44.526;11.360;2022-09-09T10:35:20;30.70;62.00
9816;DHT22;4947;44.526;11.360;2022-09-09T10:38:02;30.50;64.70
9816;DHT22;4947;44.526;11.360;2022-09-09T10:40:33;30.40;65.80
9816;DHT22;4947;44.526;11.360;2022-09-09T10:43:11;30.40;65.00
9816;DHT22;4947;44.526;11.360;2022-09-09T10:45:48;30.30;65.00
9816;DHT22;4947;44.526;11.360;2022-09-09T10:48:29;30.40;65.30
9816;DHT22;4947;44.526;11.360;2022-09-09T10:51:07;30.50;64.10
9816;DHT22;4947;44.526;11.360;2022-09-09T10:53:50;30.40;62.90
9816;DHT22;4947;44.526;11.360;2022-09-09T10:56:21;30.30;60.60
9816;DHT22;4947;44.526;11.360;2022-09-09T10:58:53;30.10;61.60
9816;DHT22;4947;44.526;11.360;2022-09-09T11:01:31;30.10;61.90
9816;DHT22;4947;44.526;11.360;2022-09-09T11:04:03;29.90;65.10
9816;DHT22;4947;44.526;11.360;2022-09-09T11:06:36;30.00;64.30
9816;DHT22;4947;44.526;11.360;2022-09-09T11:09:07;29.90;63.40
9816;DHT22;4947;44.526;11.360;2022-09-09T11:11:41;29.80;62.70
9816;DHT22;4947;44.526;11.360;2022-09-09T11:14:12;29.70;62.60
9816;DHT22;4947;44.526;11.360;2022-09-09T11:16:48;29.70;64.20
9816;DHT22;4947;44.526;11.360;2022-09-09T11:19:24;29.70;60.70
9816;DHT22;4947;44.526;11.360;2022-09-09T11:21:54;29.70;62.30
9816;DHT22;4947;44.526;11.360;2022-09-09T11:24:28;29.80;60.80
9816;DHT22;4947;44.526;11.360;2022-09-09T11:27:00;29.80;60.60
9816;DHT22;4947;44.526;11.360;2022-09-09T11:30:03;29.80;60.30
9816;DHT22;4947;44.526;11.360;2022-09-09T11:32:51;29.80;58.10
9816;DHT22;4947;44.526;11.360;2022-09-09T11:35:30;29.70;57.50
9816;DHT22;4947;44.526;11.360;2022-09-09T11:38:14;29.70;56.40
9816;DHT22;4947;44.526;11.360;2022-09-09T11:40:43;29.60;55.20
9816;DHT22;4947;44.526;11.360;2022-09-09T11:43:14;29.70;56.30
9816;DHT22;4947;44.526;11.360;2022-09-09T11:45:43;29.70;56.00
9816;DHT22;4947;44.526;11.360;2022-09-09T11:48:34;29.80;55.70
9816;DHT22;4947;44.526;11.360;2022-09-09T11:51:05;29.70;55.00
9816;DHT22;4947;44.526;11.360;2022-09-09T11:53:34;29.60;55.40
9816;DHT22;4947;44.526;11.360;2022-09-09T11:56:29;29.60;55.90
9816;DHT22;4947;44.526;11.360;2022-09-09T11:59:00;29.50;55.30
9816;DHT22;4947;44.526;11.360;2022-09-09T12:01:39;29.60;55.50
9816;DHT22;4947;44.526;11.360;2022-09-09T12:04:22;29.50;56.30
9816;DHT22;4947;44.526;11.360;2022-09-09T12:06:56;29.50;55.60
9816;DHT22;4947;44.526;11.360;2022-09-09T12:09:31;29.30;56.00
9816;DHT22;4947;44.526;11.360;2022-09-09T12:12:07;29.30;56.90
9816;DHT22;4947;44.526;11.360;2022-09-09T12:14:37;29.30;56.50
9816;DHT22;4947;44.526;11.360;2022-09-09T12:17:27;29.40;57.60
9816;DHT22;4947;44.526;11.360;2022-09-09T12:20:06;29.40;55.50
9816;DHT22;4947;44.526;11.360;2022-09-09T12:22:44;29.40;56.30
9816;DHT22;4947;44.526;11.360;2022-09-09T12:25:21;29.60;56.00
9816;DHT22;4947;44.526;11.360;2022-09-09T12:28:02;29.70;55.90
9816;DHT22;4947;44.526;11.360;2022-09-09T12:30:36;29.80;56.30
9816;DHT22;4947;44.526;11.360;2022-09-09T12:33:10;29.80;55.40
9816;DHT22;4947;44.526;11.360;2022-09-09T12:35:43;29.80;55.80
9816;DHT22;4947;44.526;11.360;2022-09-09T12:38:14;29.80;55.90
9816;DHT22;4947;44.526;11.360;2022-09-09T12:40:42;29.80;55.80
9816;DHT22;4947;44.526;11.360;2022-09-09T12:43:22;29.90;55.80
9816;DHT22;4947;44.526;11.360;2022-09-09T12:45:52;30.00;55.80
9816;DHT22;4947;44.526;11.360;2022-09-09T12:48:26;30.00;56.10
9816;DHT22;4947;44.526;11.360;2022-09-09T12:50:57;30.10;55.90
9816;DHT22;4947;44.526;11.360;2022-09-09T12:53:27;30.10;57.20
9816;DHT22;4947;44.526;11.360;2022-09-09T12:55:57;30.10;56.20
9816;DHT22;4947;44.526;11.360;2022-09-09T12:58:26;29.90;56.20
9816;DHT22;4947;44.526;11.360;2022-09-09T13:00:58;29.80;57.10
9816;DHT22;4947;44.526;11.360;2022-09-09T13:03:26;29.90;56.80
9816;DHT22;4947;44.526;11.360;2022-09-09T13:06:10;29.90;57.70
9816;DHT22;4947;44.526;11.360;2022-09-09T13:08:37;29.90;56.90
9816;DHT22;4947;44.526;11.360;2022-09-09T13:11:08;29.90;56.80
9816;DHT22;4947;44.526;11.360;2022-09-09T13:13:39;29.80;56.90
9816;DHT22;4947;44.526;11.360;2022-09-09T13:16:19;29.80;57.30
9816;DHT22;4947;44.526;11.360;2022-09-09T13:18:47;29.80;56.10
9816;DHT22;4947;44.526;11.360;2022-09-09T13:21:16;29.70;56.80
9816;DHT22;4947;44.526;11.360;2022-09-09T13:23:49;29.70;57.50
9816;DHT22;4947;44.526;11.360;2022-09-09T13:26:22;29.60;56.60
9816;DHT22;4947;44.526;11.360;2022-09-09T13:28:50;29.60;57.50
9816;DHT22;4947;44.526;11.360;2022-09-09T13:31:22;29.60;57.40
9816;DHT22;4947;44.526;11.360;2022-09-09T13:33:53;29.50;58.10
9816;DHT22;4947;44.526;11.360;2022-09-09T13:36:29;29.60;58.30
9816;DHT22;4947;44.526;11.360;2022-09-09T13:38:59;29.60;58.40
9816;DHT22;4947;44.526;11.360;2022-09-09T13:41:30;29.50;58.20
9816;DHT22;4947;44.526;11.360;2022-09-09T13:44:00;29.50;59.20
9816;DHT22;4947;44.526;11.360;2022-09-09T13:46:32;29.50;58.40
9816;DHT22;4947;44.526;11.360;2022-09-09T13:49:16;29.60;59.40
9816;DHT22;4947;44.526;11.360;2022-09-09T13:51:49;29.40;63.00
9816;DHT22;4947;44.526;11.360;2022-09-09T13:54:20;29.40;65.40
9816;DHT22;4947;44.526;11.360;2022-09-09T13:56:48;29.30;65.90
9816;DHT22;4947;44.526;11.360;2022-09-09T13:59:18;29.20;67.10
9816;DHT22;4947;44.526;11.360;2022-09-09T14:01:47;29.20;65.80
9816;DHT22;4947;44.526;11.360;2022-09-09T14:04:14;29.20;64.70
9816;DHT22;4947;44.526;11.360;2022-09-09T14:06:42;29.20;65.90
9816;DHT22;4947;44.526;11.360;2022-09-09T14:09:13;29.20;67.00
9816;DHT22;4947;44.526;11.360;2022-09-09T14:11:41;29.20;66.70
9816;DHT22;4947;44.526;11.360;2022-09-09T14:14:08;29.10;68.40
9816;DHT22;4947;44.526;11.360;2022-09-09T14:16:35;29.10;68.40
9816;DHT22;4947;44.526;11.360;2022-09-09T14:19:04;29.20;70.00
9816;DHT22;4947;44.526;11.360;2022-09-09T14:21:31;29.30;68.60
9816;DHT22;4947;44.526;11.360;2022-09-09T14:23:59;29.30;67.30
9816;DHT22;4947;44.526;11.360;2022-09-09T14:26:28;29.30;68.30
9816;DHT22;4947;44.526;11.360;2022-09-09T14:28:55;29.20;67.80
9816;DHT22;4947;44.526;11.360;2022-09-09T14:31:23;29.10;66.50
9816;DHT22;4947;44.526;11.360;2022-09-09T14:33:51;29.00;66.10
9816;DHT22;4947;44.526;11.360;2022-09-09T14:36:18;29.00;67.60
9816;DHT22;4947;44.526;11.360;2022-09-09T14:38:47;29.00;66.40
9816;DHT22;4947;44.526;11.360;2022-09-09T14:41:16;29.10;66.70
9816;DHT22;4947;44.526;11.360;2022-09-09T14:43:46;29.00;65.00
9816;DHT22;4947;44.526;11.360;2022-09-09T14:46:15;29.10;67.60
9816;DHT22;4947;44.526;11.360;2022-09-09T14:48:43;29.00;68.40
9816;DHT22;4947;44.526;11.360;2022-09-09T14:51:12;28.80;70.00
9816;DHT22;4947;44.526;11.360;2022-09-09T14:53:42;28.60;71.30
9816;DHT22;4947;44.526;11.360;2022-09-09T14:56:12;28.50;73.50
9816;DHT22;4947;44.526;11.360;2022-09-09T14:58:40;28.50;72.80
9816;DHT22;4947;44.526;11.360;2022-09-09T15:01:10;28.40;73.10
9816;DHT22;4947;44.526;11.360;2022-09-09T15:03:40;28.20;73.50
9816;DHT22;4947;44.526;11.360;2022-09-09T15:06:10;28.20;73.70
9816;DHT22;4947;44.526;11.360;2022-09-09T15:08:39;28.20;74.30
9816;DHT22;4947;44.526;11.360;2022-09-09T15:11:07;28.00;75.60
9816;DHT22;4947;44.526;11.360;2022-09-09T15:13:35;27.90;76.80
9816;DHT22;4947;44.526;11.360;2022-09-09T15:16:04;27.90;77.30
9816;DHT22;4947;44.526;11.360;2022-09-09T15:18:34;27.70;77.80
9816;DHT22;4947;44.526;11.360;2022-09-09T15:21:06;27.50;80.40
9816;DHT22;4947;44.526;11.360;2022-09-09T15:23:34;27.30;85.70
9816;DHT22;4947;44.526;11.360;2022-09-09T15:26:03;27.20;90.00
9816;DHT22;4947;44.526;11.360;2022-09-09T15:28:32;26.50;89.70
9816;DHT22;4947;44.526;11.360;2022-09-09T15:31:06;25.60;92.30
9816;DHT22;4947;44.526;11.360;2022-09-09T15:33:36;25.00;96.10
9816;DHT22;4947;44.526;11.360;2022-09-09T15:36:13;24.90;98.40
9816;DHT22;4947;44.526;11.360;2022-09-09T15:38:41;24.90;99.50
9816;DHT22;4947;44.526;11.360;2022-09-09T15:41:08;24.90;96.60
9816;DHT22;4947;44.526;11.360;2022-09-09T15:43:37;24.90;95.60
9816;DHT22;4947;44.526;11.360;2022-09-09T15:49:08;24.90;94.20
9816;DHT22;4947;44.526;11.360;2022-09-09T15:51:37;24.80;94.30
9816;DHT22;4947;44.526;11.360;2022-09-09T15:54:05;24.90;94.60
9816;DHT22;4947;44.526;11.360;2022-09-09T15:56:33;24.80;93.20
9816;DHT22;4947;44.526;11.360;2022-09-09T15:59:01;24.80;93.40
9816;DHT22;4947;44.526;11.360;2022-09-09T16:01:30;24.80;93.40
9816;DHT22;4947;44.526;11.360;2022-09-09T16:03:58;24.80;90.50
9816;DHT22;4947;44.526;11.360;2022-09-09T16:06:29;24.60;90.10
9816;DHT22;4947;44.526;11.360;2022-09-09T16:08:57;24.70;90.90
9816;DHT22;4947;44.526;11.360;2022-09-09T16:11:28;24.70;91.20
9816;DHT22;4947;44.526;11.360;2022-09-09T16:13:57;24.70;92.10
9816;DHT22;4947;44.526;11.360;2022-09-09T16:16:27;24.50;94.20
9816;DHT22;4947;44.526;11.360;2022-09-09T16:18:56;24.50;94.20